Roseland, Kansas
Current Conditions -  °F | °C
As of 9:15 PM on Friday 21 Nov 2014 (Local Time) from KPTS Reporting Station
Overcast Overcast  
Wind Chill: 53°   Ceiling: 1100
Heat Index: 53°   Visibility: 10mi
Dew Point: 51°   Wind: 7mph
Humidity: 93%   Direction: 170°S
Pressure: 30.09"   Gusts: NA
Location:  37.2661°N, 94.8513°W
Report Text: KPTS 220315Z AUTO 17006KT 10SM OVC011 11/10 A3009 RMK AO2 T01140103
Loading
Personal Weather Stations






























Interactive Weather Map New forecast layout! Learn more

10-Day Weather Forecast

Advertisements
Track Severe Weather on mobile